createdAt,value
2023-02-13T00:00:50.163Z,22.15
2023-02-13T00:03:17.055Z,17.30
2023-02-13T00:08:30.538Z,17.58
2023-02-13T00:10:57.713Z,16.87
2023-02-13T00:13:24.722Z,16.33
2023-02-13T00:15:59.652Z,15.13
2023-02-13T00:21:15.124Z,14.48
2023-02-13T00:26:32.389Z,11.60
2023-02-13T00:31:25.896Z,11.65
2023-02-13T00:32:11.962Z,0
2023-02-13T00:33:52.686Z,10.90
2023-02-13T00:36:22.691Z,12.02
2023-02-13T00:38:50.136Z,13.95
2023-02-13T00:41:17.802Z,12.67
2023-02-13T00:43:45.131Z,12.63
2023-02-13T00:46:12.034Z,12.00
2023-02-13T00:48:39.532Z,13.70
2023-02-13T00:51:07.594Z,11.57
2023-02-13T00:53:35.903Z,11.98
2023-02-13T00:56:03.076Z,10.70
2023-02-13T00:58:29.930Z,10.87
2023-02-13T01:00:57.087Z,10.70
2023-02-13T01:03:24.703Z,10.50
2023-02-13T01:05:51.827Z,12.18
2023-02-13T01:08:20.355Z,12.13
2023-02-13T01:10:48.554Z,12.00
2023-02-13T01:13:17.513Z,11.10
2023-02-13T01:15:44.986Z,10.70
2023-02-13T01:18:16.169Z,12.23
2023-02-13T01:23:39.556Z,12.40
2023-02-13T01:26:08.490Z,11.63
2023-02-13T01:28:35.348Z,13.35
2023-02-13T01:31:02.968Z,12.10
2023-02-13T01:36:17.151Z,13.90
2023-02-13T01:41:11.491Z,11.30
2023-02-13T01:44:09.895Z,12.03
2023-02-13T01:46:41.577Z,12.77
2023-02-13T01:52:05.519Z,12.10
2023-02-13T01:57:23.893Z,11.20
2023-02-13T01:59:59.454Z,13.02
2023-02-13T02:02:27.461Z,11.30
2023-02-13T02:04:54.282Z,10.10
2023-02-13T02:07:24.877Z,9.00
2023-02-13T02:09:53.851Z,9.77
2023-02-13T02:12:35.388Z,8.80
2023-02-13T02:15:04.170Z,9.35
2023-02-13T02:17:31.088Z,7.20
2023-02-13T02:20:24.643Z,5.40
2023-02-13T02:23:25.806Z,6.05
2023-02-13T02:26:01.429Z,5.70
2023-02-13T02:28:51.405Z,5.50
2023-02-13T02:32:03.493Z,5.40
2023-02-13T02:34:51.173Z,4.63
2023-02-13T02:37:22.989Z,3.95
2023-02-13T02:40:15.094Z,4.70
2023-02-13T02:43:03.089Z,4.63
2023-02-13T02:45:43.828Z,5.97
2023-02-13T02:48:28.592Z,4.83
2023-02-13T02:51:06.963Z,4.35
2023-02-13T02:54:04.555Z,4.20
2023-02-13T02:56:51.601Z,4.15
2023-02-13T02:59:20.884Z,4.65
2023-02-13T03:01:48.691Z,5.50
2023-02-13T03:04:48.057Z,3.97
2023-02-13T03:07:17.775Z,4.50
2023-02-13T03:09:49.664Z,4.95
2023-02-13T03:12:20.246Z,5.20
2023-02-13T03:14:46.968Z,5.25
2023-02-13T03:17:17.271Z,6.13
2023-02-13T03:20:13.349Z,3.72
2023-02-13T03:25:45.329Z,4.60
2023-02-13T03:31:08.068Z,4.60
2023-02-13T03:34:19.121Z,4.73
2023-02-13T03:37:01.340Z,4.53
2023-02-13T03:42:35.636Z,5.63
2023-02-13T03:47:56.791Z,11.82
2023-02-13T03:53:15.954Z,10.02
2023-02-13T03:55:47.402Z,15.63
2023-02-13T03:58:29.265Z,15.38
2023-02-13T04:06:35.793Z,18.88
2023-02-13T04:09:02.919Z,33.35
2023-02-13T04:11:48.211Z,22.65
2023-02-13T04:14:21.599Z,23.65
2023-02-13T04:16:52.279Z,21.60
2023-02-13T04:19:20.494Z,22.73
2023-02-13T04:21:54.631Z,35.85
2023-02-13T04:24:21.369Z,28.98
2023-02-13T04:26:48.182Z,29.65
2023-02-13T04:29:14.972Z,22.80
2023-02-13T04:31:41.933Z,29.92
2023-02-13T04:34:08.835Z,25.65
2023-02-13T04:36:35.660Z,24.85
2023-02-13T04:39:02.547Z,29.35
2023-02-13T04:41:29.362Z,32.70
2023-02-13T04:43:56.105Z,33.75
2023-02-13T04:48:49.548Z,31.35
2023-02-13T04:51:16.310Z,34.90
2023-02-13T04:56:09.840Z,35.30
2023-02-13T04:58:36.722Z,38.05
2023-02-13T05:01:11.068Z,35.63
2023-02-13T05:03:37.853Z,39.53
2023-02-13T05:06:04.774Z,40.70
2023-02-13T05:10:58.486Z,42.47
2023-02-13T05:13:25.450Z,52.40
2023-02-13T05:18:19.916Z,43.13
2023-02-13T05:20:46.685Z,41.30
2023-02-13T05:26:01.600Z,42.30
2023-02-13T05:28:28.615Z,44.10
2023-02-13T05:30:55.571Z,48.03
2023-02-13T05:33:22.529Z,45.58
2023-02-13T05:35:49.349Z,44.93
2023-02-13T05:38:16.129Z,50.28
2023-02-13T05:40:42.963Z,50.80
2023-02-13T05:43:09.724Z,47.27
2023-02-13T05:45:36.524Z,54.17
2023-02-13T05:48:03.445Z,51.13
2023-02-13T05:50:30.200Z,50.03
2023-02-13T05:52:57.033Z,52.88
2023-02-13T05:55:23.783Z,53.90
2023-02-13T05:57:50.529Z,49.75
2023-02-13T06:00:17.877Z,48.67
2023-02-13T06:02:44.648Z,50.50
2023-02-13T06:05:11.433Z,49.33
2023-02-13T06:07:38.158Z,44.50
2023-02-13T06:10:05.402Z,44.92
2023-02-13T06:12:32.157Z,50.42
2023-02-13T06:17:45.631Z,47.93
2023-02-13T06:22:59.398Z,44.78
2023-02-13T06:25:26.250Z,42.88
2023-02-13T06:27:53.880Z,45.65
2023-02-13T06:30:21.238Z,47.30
2023-02-13T06:32:48.814Z,49.78
2023-02-13T06:35:16.032Z,42.00
2023-02-13T06:37:43.380Z,35.43
2023-02-13T06:40:10.918Z,32.63
2023-02-13T06:42:37.672Z,37.10
2023-02-13T06:45:05.048Z,36.47
2023-02-13T06:47:31.920Z,31.73
2023-02-13T06:49:58.699Z,33.90
2023-02-13T06:52:25.731Z,30.67
2023-02-13T06:54:52.484Z,32.72
2023-02-13T06:57:19.261Z,29.58
2023-02-13T06:59:45.997Z,29.30
2023-02-13T07:02:13.564Z,25.85
2023-02-13T07:04:40.753Z,26.53
2023-02-13T07:07:07.531Z,25.50
2023-02-13T07:09:34.325Z,25.92
2023-02-13T07:12:07.529Z,28.17
2023-02-13T07:14:34.306Z,22.80
2023-02-13T07:17:01.038Z,21.87
2023-02-13T07:19:27.757Z,24.33
2023-02-13T07:21:54.620Z,23.20
2023-02-13T07:24:21.372Z,23.50
2023-02-13T07:26:48.136Z,19.20
2023-02-13T07:29:14.252Z,0
2023-02-13T07:32:01.582Z,19.35
2023-02-13T07:34:28.390Z,21.90
2023-02-13T07:36:55.287Z,21.17
2023-02-13T07:39:22.045Z,19.60
2023-02-13T07:41:48.765Z,19.95
2023-02-13T07:44:15.491Z,19.48
2023-02-13T07:46:42.260Z,16.65
2023-02-13T07:49:09.057Z,16.80
2023-02-13T07:51:35.952Z,16.08
2023-02-13T07:54:03.227Z,15.32
2023-02-13T07:56:30.038Z,16.52
2023-02-13T07:58:57.057Z,16.08
2023-02-13T08:01:23.918Z,15.27
2023-02-13T08:03:51.523Z,15.97
2023-02-13T08:06:19.798Z,15.45
2023-02-13T08:08:46.672Z,16.08
2023-02-13T08:14:26.613Z,16.48
2023-02-13T08:16:54.459Z,15.40
2023-02-13T08:19:21.750Z,16.70
2023-02-13T08:21:48.513Z,17.48
2023-02-13T08:24:15.262Z,17.35
2023-02-13T08:26:42.040Z,14.88
2023-02-13T08:29:08.926Z,14.43
2023-02-13T08:32:55.377Z,0
2023-02-13T08:34:22.464Z,14.32
2023-02-13T08:36:49.204Z,14.82
2023-02-13T08:39:15.999Z,14.30
2023-02-13T08:41:42.780Z,14.38
2023-02-13T08:44:10.922Z,13.75
2023-02-13T08:46:37.774Z,13.80
2023-02-13T08:49:04.569Z,13.57
2023-02-13T08:51:31.353Z,14.60
2023-02-13T08:53:58.128Z,13.38
2023-02-13T08:56:24.913Z,14.25
2023-02-13T08:58:51.673Z,13.47
2023-02-13T09:01:18.763Z,15.25
2023-02-13T09:03:45.571Z,12.68
2023-02-13T09:06:12.506Z,12.57
2023-02-13T09:08:39.289Z,12.95
2023-02-13T09:13:53.901Z,12.07
2023-02-13T09:19:07.786Z,12.88
2023-02-13T09:21:34.528Z,13.18
2023-02-13T09:24:01.274Z,12.55
2023-02-13T09:26:28.078Z,13.25
2023-02-13T09:28:54.822Z,11.80
2023-02-13T09:31:21.841Z,11.00
2023-02-13T09:33:49.241Z,11.77
2023-02-13T09:36:19.000Z,11.57
2023-02-13T09:38:47.258Z,12.30
2023-02-13T09:41:37.034Z,11.93
2023-02-13T09:44:15.780Z,10.88
2023-02-13T09:46:43.447Z,12.03
2023-02-13T09:49:19.680Z,12.23
2023-02-13T09:51:52.452Z,11.70
2023-02-13T09:54:20.167Z,12.18
2023-02-13T09:57:02.958Z,11.13
2023-02-13T10:00:00.077Z,13.18
2023-02-13T10:02:29.836Z,12.10
2023-02-13T10:05:38.244Z,12.80
2023-02-13T10:08:38.267Z,13.93
2023-02-13T10:11:13.784Z,11.80
2023-02-13T10:14:02.494Z,13.25
2023-02-13T10:19:36.304Z,15.77
2023-02-13T10:22:21.642Z,13.18
2023-02-13T10:24:50.705Z,14.63
2023-02-13T10:27:32.499Z,19.65
2023-02-13T10:30:11.225Z,16.47
2023-02-13T10:32:56.721Z,12.02
2023-02-13T10:35:30.527Z,10.33
2023-02-13T10:37:59.620Z,10.70
2023-02-13T10:40:35.462Z,11.68
2023-02-13T10:46:11.542Z,9.93
2023-02-13T10:48:44.171Z,11.00
2023-02-13T10:51:44.124Z,11.15
2023-02-13T10:54:19.711Z,14.13
2023-02-13T10:57:05.418Z,13.65
2023-02-13T10:59:51.847Z,13.30
2023-02-13T11:02:28.153Z,14.00
2023-02-13T11:08:17.667Z,12.30
2023-02-13T11:10:44.425Z,13.18
2023-02-13T11:13:25.912Z,11.98
2023-02-13T11:16:18.357Z,13.45
2023-02-13T11:18:50.287Z,15.80
2023-02-13T11:21:21.943Z,14.73
2023-02-13T11:23:54.808Z,12.98
2023-02-13T11:29:27.531Z,13.40
2023-02-13T11:32:25.523Z,13.23
2023-02-13T11:34:52.395Z,12.88
2023-02-13T11:37:21.115Z,12.57
2023-02-13T11:39:51.354Z,17.90
2023-02-13T11:42:26.114Z,17.08
2023-02-13T11:45:14.668Z,20.00
2023-02-13T11:50:24.551Z,15.18
2023-02-13T11:53:17.666Z,14.40
2023-02-13T11:55:46.131Z,14.50
2023-02-13T12:04:05.246Z,15.88
2023-02-13T12:06:34.787Z,15.98
2023-02-13T12:09:02.744Z,15.65
2023-02-13T12:11:51.698Z,17.27
2023-02-13T12:14:26.284Z,16.23
2023-02-13T12:17:07.243Z,15.50
2023-02-13T12:17:34.783Z,0
2023-02-13T12:19:40.284Z,15.93
2023-02-13T12:22:35.318Z,16.25
2023-02-13T12:25:24.009Z,17.73
2023-02-13T12:28:09.389Z,17.35
2023-02-13T12:30:42.088Z,16.75
2023-02-13T12:36:27.937Z,18.30
2023-02-13T12:39:34.172Z,17.67
2023-02-13T12:42:06.671Z,19.17
2023-02-13T12:44:36.739Z,21.48
2023-02-13T12:47:15.369Z,32.00
2023-02-13T12:49:45.226Z,26.10
2023-02-13T12:55:19.479Z,18.63
2023-02-13T12:57:46.207Z,17.95
2023-02-13T13:00:22.153Z,18.90
2023-02-13T13:03:01.640Z,19.13
2023-02-13T13:05:36.576Z,21.23
2023-02-13T13:08:27.251Z,21.08
2023-02-13T13:11:02.759Z,21.25
2023-02-13T13:17:07.330Z,25.50
2023-02-13T13:20:01.345Z,23.00
2023-02-13T13:22:42.108Z,20.87
2023-02-13T13:28:16.749Z,20.00
2023-02-13T13:33:33.208Z,21.25
2023-02-13T13:36:21.845Z,21.90
2023-02-13T13:42:19.009Z,0
2023-02-13T13:48:17.676Z,22.38
2023-02-13T13:53:32.033Z,24.55
2023-02-13T13:58:51.137Z,24.35
2023-02-13T14:07:24.759Z,24.25
2023-02-13T14:12:47.114Z,21.38
2023-02-13T14:15:38.789Z,23.20
2023-02-13T14:18:11.660Z,22.08
2023-02-13T14:20:47.335Z,22.02
2023-02-13T14:23:23.563Z,22.60
2023-02-13T14:25:51.218Z,20.55
2023-02-13T14:28:27.587Z,20.63
2023-02-13T14:31:08.286Z,21.38
2023-02-13T14:33:35.595Z,22.55
2023-02-13T14:36:07.220Z,22.50
2023-02-13T14:38:35.382Z,22.63
2023-02-13T14:41:02.466Z,23.95
2023-02-13T14:46:40.531Z,22.77
2023-02-13T14:49:24.612Z,23.77
2023-02-13T14:51:55.656Z,24.67
2023-02-13T14:54:45.272Z,25.07
2023-02-13T14:57:28.875Z,23.05
2023-02-13T15:00:03.509Z,24.15
2023-02-13T15:02:44.724Z,26.65
2023-02-13T15:05:17.028Z,23.20
2023-02-13T15:08:02.046Z,23.60
2023-02-13T15:10:47.397Z,22.83
2023-02-13T15:13:16.866Z,24.50
2023-02-13T15:15:45.369Z,26.10
2023-02-13T15:18:22.355Z,25.00
2023-02-13T15:23:36.544Z,27.30
2023-02-13T15:29:09.131Z,27.40
2023-02-13T15:29:51.396Z,0
2023-02-13T15:31:38.410Z,26.95
2023-02-13T15:34:29.725Z,26.42
2023-02-13T15:36:57.033Z,32.88
2023-02-13T15:41:57.002Z,25.13
2023-02-13T15:44:28.246Z,26.45
2023-02-13T15:47:01.997Z,27.08
2023-02-13T15:49:34.378Z,28.15
2023-02-13T15:55:00.029Z,28.92
2023-02-13T16:00:25.802Z,28.42
2023-02-13T16:02:54.759Z,28.25
2023-02-13T16:05:38.573Z,26.00
2023-02-13T16:08:25.056Z,25.48
2023-02-13T16:11:19.824Z,26.77
2023-02-13T16:13:56.727Z,27.20
2023-02-13T16:16:23.939Z,31.17
2023-02-13T16:18:51.516Z,27.60
2023-02-13T16:21:27.405Z,30.02
2023-02-13T16:24:00.612Z,28.10
2023-02-13T16:26:27.869Z,29.08
2023-02-13T16:28:54.724Z,28.52
2023-02-13T16:31:22.033Z,25.13
2023-02-13T16:33:49.007Z,28.35
2023-02-13T16:36:15.784Z,28.08
2023-02-13T16:41:33.533Z,30.33
2023-02-13T16:47:04.743Z,28.05
2023-02-13T16:49:37.583Z,28.45
2023-02-13T16:52:09.591Z,31.67
2023-02-13T16:54:45.385Z,33.60
2023-02-13T16:57:14.921Z,32.13
2023-02-13T16:59:47.804Z,35.40
2023-02-13T17:02:21.778Z,61.33
2023-02-13T17:04:56.009Z,32.67
2023-02-13T17:07:28.916Z,30.88
2023-02-13T17:10:00.184Z,27.60
2023-02-13T17:12:29.033Z,32.00
2023-02-13T17:14:57.901Z,29.90
2023-02-13T17:17:26.473Z,31.50
2023-02-13T17:19:53.266Z,29.40
2023-02-13T17:22:28.939Z,29.83
2023-02-13T17:24:56.009Z,30.48
2023-02-13T17:30:18.520Z,31.60
2023-02-13T17:32:46.538Z,34.60
2023-02-13T17:35:14.704Z,33.97
2023-02-13T17:37:43.320Z,47.42
2023-02-13T17:40:18.754Z,37.03
2023-02-13T17:42:47.613Z,33.67
2023-02-13T17:45:16.075Z,30.02
2023-02-13T17:47:42.924Z,35.65
2023-02-13T17:50:10.979Z,35.58
2023-02-13T17:52:39.098Z,36.90
2023-02-13T17:55:07.796Z,34.53
2023-02-13T17:57:34.560Z,32.15
2023-02-13T18:00:01.321Z,33.58
2023-02-13T18:02:28.168Z,35.67
2023-02-13T18:04:54.965Z,34.33
2023-02-13T18:07:21.829Z,35.13
2023-02-13T18:09:48.887Z,34.00
2023-02-13T18:12:24.926Z,34.35
2023-02-13T18:17:39.299Z,41.83
2023-02-13T18:22:56.053Z,41.35
2023-02-13T18:25:22.917Z,36.70
2023-02-13T18:27:50.039Z,33.90
2023-02-13T18:30:19.516Z,33.78
2023-02-13T18:32:51.764Z,33.45
2023-02-13T18:35:18.587Z,35.83
2023-02-13T18:37:45.629Z,37.00
2023-02-13T18:40:15.604Z,36.97
2023-02-13T18:42:42.371Z,32.25
2023-02-13T18:45:10.059Z,53.17
2023-02-13T18:47:36.836Z,38.78
2023-02-13T18:50:04.157Z,34.30
2023-02-13T18:52:30.929Z,34.47
2023-02-13T18:54:57.711Z,33.67
2023-02-13T18:57:24.444Z,40.78
2023-02-13T18:59:51.882Z,39.13
2023-02-13T19:02:18.651Z,42.20
2023-02-13T19:04:45.423Z,37.47
2023-02-13T19:07:12.243Z,35.90
2023-02-13T19:09:39.001Z,33.83
2023-02-13T19:12:06.533Z,37.90
2023-02-13T19:14:33.342Z,35.50
2023-02-13T19:17:00.123Z,36.55
2023-02-13T19:22:13.605Z,36.83
2023-02-13T19:27:07.158Z,51.25
2023-02-13T19:29:33.947Z,44.55
2023-02-13T19:32:00.747Z,36.05
2023-02-13T19:34:27.617Z,35.70
2023-02-13T19:36:54.399Z,34.70
2023-02-13T19:37:45.117Z,0
2023-02-13T19:39:21.153Z,35.28
2023-02-13T19:41:47.905Z,34.85
2023-02-13T19:44:14.937Z,34.00
2023-02-13T19:46:41.715Z,34.40
2023-02-13T19:49:08.666Z,34.22
2023-02-13T19:54:22.692Z,35.15
2023-02-13T19:59:36.324Z,35.72
2023-02-13T20:02:03.198Z,35.60
2023-02-13T20:04:30.034Z,36.53
2023-02-13T20:06:56.781Z,35.67
2023-02-13T20:09:24.289Z,36.40
2023-02-13T20:11:51.051Z,35.55
2023-02-13T20:14:17.866Z,36.92
2023-02-13T20:16:44.963Z,45.42
2023-02-13T20:19:11.957Z,36.17
2023-02-13T20:21:40.239Z,38.17
2023-02-13T20:24:07.556Z,39.85
2023-02-13T20:26:35.210Z,44.97
2023-02-13T20:29:02.809Z,38.92
2023-02-13T20:31:30.420Z,46.38
2023-02-13T20:33:58.295Z,37.25
2023-02-13T20:36:27.849Z,40.83
2023-02-13T20:39:00.116Z,32.93
2023-02-13T20:44:16.903Z,34.07
2023-02-13T20:49:30.329Z,38.63
2023-02-13T20:54:43.906Z,36.92
2023-02-13T20:59:57.286Z,33.22
2023-02-13T21:02:24.049Z,31.02
2023-02-13T21:04:50.834Z,30.05
2023-02-13T21:07:17.668Z,29.08
2023-02-13T21:09:44.794Z,31.30
2023-02-13T21:12:11.566Z,32.83
2023-02-13T21:14:38.356Z,31.45
2023-02-13T21:17:05.116Z,30.38
2023-02-13T21:19:31.920Z,28.77
2023-02-13T21:21:58.839Z,27.42
2023-02-13T21:24:25.649Z,27.75
2023-02-13T21:26:53.056Z,27.92
2023-02-13T21:29:20.153Z,28.02
2023-02-13T21:31:47.491Z,29.08
2023-02-13T21:37:02.639Z,26.45
2023-02-13T21:42:16.140Z,28.10
2023-02-13T21:44:42.907Z,26.20
2023-02-13T21:47:09.794Z,26.58
2023-02-13T21:49:36.580Z,25.50
2023-02-13T21:52:03.490Z,25.33
2023-02-13T21:54:30.257Z,26.65
2023-02-13T21:56:57.021Z,28.90
2023-02-13T21:59:23.832Z,25.63
2023-02-13T22:01:51.578Z,24.20
2023-02-13T22:04:19.792Z,27.38
2023-02-13T22:06:51.825Z,26.50
2023-02-13T22:09:20.652Z,26.13
2023-02-13T22:11:49.898Z,25.47
2023-02-13T22:17:05.221Z,25.38
2023-02-13T22:19:32.136Z,26.50
2023-02-13T22:21:58.908Z,26.80
2023-02-13T22:24:25.677Z,26.58
2023-02-13T22:26:52.446Z,28.13
2023-02-13T22:29:19.214Z,25.40
2023-02-13T22:31:46.471Z,25.88
2023-02-13T22:34:13.838Z,26.83
2023-02-13T22:36:41.390Z,27.40
2023-02-13T22:39:09.967Z,24.45
2023-02-13T22:41:37.119Z,25.50
2023-02-13T22:44:04.103Z,28.20
2023-02-13T22:46:32.250Z,25.52
2023-02-13T22:49:00.012Z,24.80
2023-02-13T22:51:29.709Z,28.63
2023-02-13T22:53:58.059Z,26.58
2023-02-13T22:56:26.084Z,26.67
2023-02-13T22:58:54.296Z,27.53
2023-02-13T23:01:23.712Z,28.50
2023-02-13T23:03:50.614Z,26.40
2023-02-13T23:06:18.241Z,24.23
2023-02-13T23:08:45.712Z,29.52
2023-02-13T23:11:15.193Z,27.83
2023-02-13T23:13:44.649Z,27.42
2023-02-13T23:16:15.538Z,27.40
2023-02-13T23:18:43.243Z,25.55
2023-02-13T23:21:10.169Z,26.97
2023-02-13T23:23:37.796Z,26.52
2023-02-13T23:28:53.319Z,29.10
2023-02-13T23:31:20.193Z,25.95
2023-02-13T23:33:47.038Z,27.55
2023-02-13T23:36:13.805Z,27.73
2023-02-13T23:38:40.917Z,26.67
2023-02-13T23:41:09.541Z,26.48
2023-02-13T23:43:36.644Z,27.00
2023-02-13T23:46:05.585Z,29.73
2023-02-13T23:48:33.505Z,28.37
2023-02-13T23:51:01.340Z,30.42
2023-02-13T23:53:28.611Z,29.92
2023-02-13T23:58:42.081Z,29.40
